createdAt,value
2022-08-20T00:02:32.249Z,18.90
2022-08-20T00:05:45.151Z,18.45
2022-08-20T00:08:51.721Z,18.40
2022-08-20T00:11:57.410Z,17.95
2022-08-20T00:15:03.180Z,18.40
2022-08-20T00:18:12.445Z,18.70
2022-08-20T00:21:20.783Z,17.17
2022-08-20T00:24:26.804Z,18.57
2022-08-20T00:27:32.704Z,18.02
2022-08-20T00:30:39.663Z,17.85
2022-08-20T00:33:45.529Z,18.23
2022-08-20T00:36:51.621Z,17.70
2022-08-20T00:39:57.218Z,17.73
2022-08-20T00:43:07.981Z,17.85
2022-08-20T00:46:15.182Z,18.77
2022-08-20T00:49:23.874Z,17.98
2022-08-20T00:52:31.371Z,17.85
2022-08-20T00:55:37.584Z,17.82
2022-08-20T00:58:42.047Z,16.75
2022-08-20T01:01:55.058Z,17.77
2022-08-20T01:04:58.657Z,18.05
2022-08-20T01:08:05.156Z,17.12
2022-08-20T01:11:13.575Z,17.37
2022-08-20T01:14:27.998Z,18.20
2022-08-20T01:17:39.303Z,18.05
2022-08-20T01:20:50.823Z,16.82
2022-08-20T01:24:10.048Z,17.45
2022-08-20T01:27:18.060Z,17.35
2022-08-20T01:30:23.288Z,16.75
2022-08-20T01:33:28.828Z,16.82
2022-08-20T01:36:43.021Z,17.15
2022-08-20T01:39:49.139Z,18.37
2022-08-20T01:42:58.747Z,17.92
2022-08-20T01:46:06.861Z,18.20
2022-08-20T01:49:13.669Z,17.35
2022-08-20T01:52:22.046Z,17.90
2022-08-20T01:55:28.657Z,18.62
2022-08-20T01:58:36.289Z,18.00
2022-08-20T02:01:50.940Z,16.70
2022-08-20T02:04:57.655Z,17.62
2022-08-20T02:08:03.412Z,17.32
2022-08-20T02:11:09.599Z,15.70
2022-08-20T02:14:15.261Z,16.73
2022-08-20T02:17:22.060Z,14.98
2022-08-20T02:20:33.593Z,16.52
2022-08-20T02:23:40.248Z,15.83
2022-08-20T02:26:45.853Z,16.82
2022-08-20T02:29:51.705Z,15.23
2022-08-20T02:32:58.066Z,16.30
2022-08-20T02:36:04.690Z,16.55
2022-08-20T02:39:10.443Z,15.70
2022-08-20T02:42:15.995Z,15.72
2022-08-20T02:45:22.324Z,15.03
2022-08-20T02:48:31.308Z,14.00
2022-08-20T02:51:36.310Z,14.35
2022-08-20T02:54:42.717Z,13.95
2022-08-20T02:57:48.538Z,13.50
2022-08-20T03:00:56.985Z,13.58
2022-08-20T03:04:04.254Z,14.33
2022-08-20T03:07:09.618Z,13.38
2022-08-20T03:10:15.589Z,13.32
2022-08-20T03:13:20.813Z,13.28
2022-08-20T03:16:26.331Z,13.32
2022-08-20T03:19:33.325Z,13.10
2022-08-20T03:22:39.456Z,14.13
2022-08-20T03:25:44.813Z,13.30
2022-08-20T03:28:50.224Z,13.58
2022-08-20T03:31:55.959Z,12.80
2022-08-20T03:35:00.980Z,13.40
2022-08-20T03:38:06.549Z,12.85
2022-08-20T03:41:12.934Z,12.40
2022-08-20T03:44:19.620Z,13.62
2022-08-20T03:47:25.439Z,11.65
2022-08-20T03:50:31.579Z,12.20
2022-08-20T03:53:39.153Z,12.55
2022-08-20T03:56:44.601Z,11.85
2022-08-20T03:59:49.798Z,11.15
2022-08-20T04:02:56.973Z,11.55
2022-08-20T04:06:02.933Z,11.93
2022-08-20T04:09:09.752Z,10.80
2022-08-20T04:12:18.888Z,10.78
2022-08-20T04:15:26.099Z,10.82
2022-08-20T04:18:32.898Z,9.73
2022-08-20T04:21:38.651Z,10.23
2022-08-20T04:24:44.890Z,10.10
2022-08-20T04:27:56.169Z,10.35
2022-08-20T04:31:01.754Z,9.15
2022-08-20T04:34:07.436Z,9.63
2022-08-20T04:37:16.756Z,10.25
2022-08-20T04:40:42.565Z,9.48
2022-08-20T04:43:50.364Z,9.15
2022-08-20T04:46:56.706Z,8.60
2022-08-20T04:50:04.520Z,7.90
2022-08-20T04:53:11.210Z,8.43
2022-08-20T04:56:17.112Z,8.40
2022-08-20T04:59:22.745Z,8.83
2022-08-20T05:02:28.307Z,9.13
2022-08-20T05:05:34.926Z,8.10
2022-08-20T05:08:40.298Z,9.30
2022-08-20T05:11:47.069Z,8.05
2022-08-20T05:14:53.947Z,9.05
2022-08-20T05:18:00.711Z,8.50
2022-08-20T05:21:08.554Z,8.40
2022-08-20T05:24:14.448Z,8.45
2022-08-20T05:27:24.546Z,7.92
2022-08-20T05:30:27.717Z,8.35
2022-08-20T05:33:28.950Z,8.63
2022-08-20T05:36:22.581Z,7.58
2022-08-20T05:39:27.119Z,8.48
2022-08-20T05:42:33.628Z,8.00
2022-08-20T05:45:38.959Z,8.95
2022-08-20T05:48:44.788Z,8.15
2022-08-20T05:51:50.493Z,8.73
2022-08-20T05:54:57.170Z,8.83
2022-08-20T05:58:02.768Z,9.03
2022-08-20T06:01:09.695Z,8.30
2022-08-20T06:04:31.628Z,9.80
2022-08-20T06:07:37.419Z,9.08
2022-08-20T06:10:43.741Z,7.75
2022-08-20T06:13:49.905Z,8.70
2022-08-20T06:16:57.719Z,9.03
2022-08-20T06:20:03.436Z,8.95
2022-08-20T06:23:10.836Z,9.40
2022-08-20T06:26:16.030Z,9.48
2022-08-20T06:29:17.003Z,8.75
2022-08-20T06:32:32.147Z,9.23
2022-08-20T06:35:29.539Z,9.13
2022-08-20T06:38:35.295Z,9.13
2022-08-20T06:41:42.206Z,8.48
2022-08-20T06:44:47.671Z,10.32
2022-08-20T06:47:57.639Z,9.28
2022-08-20T06:51:03.250Z,9.47
2022-08-20T06:54:08.708Z,8.00
2022-08-20T06:57:13.846Z,10.20
2022-08-20T07:00:23.802Z,10.03
2022-08-20T07:03:29.883Z,10.00
2022-08-20T07:06:35.803Z,10.23
2022-08-20T07:09:42.569Z,8.73
2022-08-20T07:12:48.466Z,9.60
2022-08-20T07:15:56.421Z,10.13
2022-08-20T07:19:01.965Z,9.70
2022-08-20T07:22:06.789Z,8.55
2022-08-20T07:25:04.957Z,8.83
2022-08-20T07:28:16.717Z,9.25
2022-08-20T07:31:42.111Z,10.78
2022-08-20T07:34:48.401Z,9.98
2022-08-20T07:37:55.851Z,9.33
2022-08-20T07:41:02.189Z,9.73
2022-08-20T07:44:08.017Z,8.93
2022-08-20T07:47:15.826Z,8.55
2022-08-20T07:50:22.186Z,9.00
2022-08-20T07:53:26.949Z,8.58
2022-08-20T07:56:35.622Z,8.45
2022-08-20T07:59:42.339Z,8.48
2022-08-20T08:02:48.921Z,9.60
2022-08-20T08:06:01.281Z,9.95
2022-08-20T08:09:08.464Z,8.68
2022-08-20T08:12:15.468Z,9.08
2022-08-20T08:15:24.057Z,8.60
2022-08-20T08:18:36.006Z,8.40
2022-08-20T08:21:41.409Z,9.30
2022-08-20T08:24:57.446Z,8.70
2022-08-20T08:27:55.588Z,7.90
2022-08-20T08:31:02.434Z,9.23
2022-08-20T08:34:07.935Z,8.83
2022-08-20T08:37:13.650Z,7.65
2022-08-20T08:40:20.527Z,7.78
2022-08-20T08:43:31.204Z,7.65
2022-08-20T08:46:38.844Z,8.68
2022-08-20T08:49:47.392Z,8.28
2022-08-20T08:52:53.439Z,8.15
2022-08-20T08:56:00.031Z,8.65
2022-08-20T08:59:04.825Z,8.40
2022-08-20T09:02:12.908Z,8.13
2022-08-20T09:05:22.309Z,7.30
2022-08-20T09:08:30.114Z,8.30
2022-08-20T09:11:37.667Z,7.83
2022-08-20T09:14:45.063Z,7.40
2022-08-20T09:17:50.699Z,8.23
2022-08-20T09:20:57.655Z,8.08
2022-08-20T09:24:03.501Z,8.28
2022-08-20T09:27:09.312Z,7.53
2022-08-20T09:32:50.214Z,9.23
2022-08-20T09:35:56.638Z,7.58
2022-08-20T09:39:03.108Z,8.78
2022-08-20T09:42:08.784Z,7.65
2022-08-20T09:45:14.674Z,7.40
2022-08-20T09:48:21.322Z,7.62
2022-08-20T09:51:27.976Z,7.95
2022-08-20T09:54:36.429Z,8.15
2022-08-20T09:57:42.045Z,7.90
2022-08-20T10:00:47.469Z,7.78
2022-08-20T10:03:55.348Z,7.87
2022-08-20T10:07:01.225Z,8.70
2022-08-20T10:10:07.490Z,8.63
2022-08-20T10:13:13.397Z,8.98
2022-08-20T10:16:19.389Z,8.25
2022-08-20T10:19:24.893Z,8.38
2022-08-20T10:22:23.175Z,7.92
2022-08-20T10:25:24.872Z,7.37
2022-08-20T10:28:29.945Z,8.83
2022-08-20T10:31:34.821Z,7.87
2022-08-20T10:34:40.152Z,7.95
2022-08-20T10:37:45.957Z,7.25
2022-08-20T10:40:52.248Z,6.78
2022-08-20T10:43:58.886Z,8.30
2022-08-20T10:47:04.867Z,6.97
2022-08-20T10:50:12.740Z,7.33
2022-08-20T10:53:19.925Z,7.20
2022-08-20T10:56:25.747Z,7.67
2022-08-20T10:59:30.616Z,7.22
2022-08-20T11:02:36.410Z,7.33
2022-08-20T11:05:41.852Z,7.53
2022-08-20T11:08:47.711Z,7.60
2022-08-20T11:11:47.319Z,6.62
2022-08-20T11:17:58.139Z,6.87
2022-08-20T11:21:04.209Z,6.70
2022-08-20T11:24:09.637Z,7.45
2022-08-20T11:27:15.408Z,6.75
2022-08-20T11:30:23.904Z,7.15
2022-08-20T11:33:30.285Z,6.75
2022-08-20T11:36:37.166Z,6.95
2022-08-20T11:39:42.992Z,6.87
2022-08-20T11:43:13.226Z,6.62
2022-08-20T11:45:56.006Z,6.47
2022-08-20T11:49:01.765Z,6.25
2022-08-20T11:52:08.554Z,5.97
2022-08-20T11:55:13.948Z,6.60
2022-08-20T11:58:22.057Z,6.65
2022-08-20T12:01:27.683Z,6.45
2022-08-20T12:04:33.713Z,6.53
2022-08-20T12:07:40.314Z,5.90
2022-08-20T12:10:46.172Z,5.45
2022-08-20T12:13:47.794Z,6.25
2022-08-20T12:16:52.574Z,6.28
2022-08-20T12:19:58.374Z,6.12
2022-08-20T12:23:05.185Z,6.25
2022-08-20T12:26:10.780Z,5.12
2022-08-20T12:29:16.632Z,5.33
2022-08-20T12:32:23.518Z,5.75
2022-08-20T12:35:30.139Z,5.30
2022-08-20T12:38:37.171Z,5.72
2022-08-20T12:41:42.729Z,5.87
2022-08-20T12:44:48.618Z,5.80
2022-08-20T12:47:57.364Z,6.20
2022-08-20T12:50:57.516Z,5.25
2022-08-20T12:53:50.225Z,5.97
2022-08-20T12:56:56.134Z,5.60
2022-08-20T13:00:03.714Z,4.87
2022-08-20T13:03:10.513Z,5.45
2022-08-20T13:06:16.335Z,5.25
2022-08-20T13:09:23.029Z,5.97
2022-08-20T13:12:28.398Z,5.20
2022-08-20T13:15:34.879Z,5.85
2022-08-20T13:18:40.720Z,5.85
2022-08-20T13:21:46.654Z,5.62
2022-08-20T13:24:54.772Z,5.03
2022-08-20T13:28:00.494Z,5.72
2022-08-20T13:31:08.568Z,6.12
2022-08-20T13:34:15.200Z,4.47
2022-08-20T13:37:33.568Z,4.58
2022-08-20T13:40:39.541Z,5.12
2022-08-20T13:43:45.532Z,5.92
2022-08-20T13:46:51.184Z,5.72
2022-08-20T13:49:58.767Z,6.80
2022-08-20T13:53:05.433Z,8.23
2022-08-20T13:56:13.064Z,9.28
2022-08-20T13:59:19.057Z,8.60
2022-08-20T14:02:25.008Z,7.15
2022-08-20T14:05:31.722Z,8.60
2022-08-20T14:08:37.623Z,8.13
2022-08-20T14:11:43.613Z,7.03
2022-08-20T14:14:49.112Z,8.30
2022-08-20T14:17:59.579Z,8.10
2022-08-20T14:24:09.672Z,8.68
2022-08-20T14:27:15.074Z,8.68
2022-08-20T14:30:23.728Z,7.08
2022-08-20T14:33:29.222Z,7.55
2022-08-20T14:36:28.136Z,7.08
2022-08-20T14:39:34.390Z,6.53
2022-08-20T14:42:40.001Z,6.42
2022-08-20T14:45:46.645Z,6.58
2022-08-20T14:48:53.235Z,6.58
2022-08-20T14:52:00.578Z,7.50
2022-08-20T14:55:06.400Z,8.60
2022-08-20T14:58:11.884Z,6.62
2022-08-20T15:01:17.633Z,7.22
2022-08-20T15:04:25.676Z,8.63
2022-08-20T15:07:41.201Z,7.28
2022-08-20T15:10:48.388Z,6.30
2022-08-20T15:13:54.394Z,6.05
2022-08-20T15:17:00.797Z,5.90
2022-08-20T15:20:07.304Z,4.90
2022-08-20T15:23:14.157Z,4.80
2022-08-20T15:26:13.346Z,5.17
2022-08-20T15:29:22.647Z,4.37
2022-08-20T15:32:26.808Z,4.20
2022-08-20T15:35:31.872Z,4.30
2022-08-20T15:38:37.153Z,3.62
2022-08-20T15:41:42.517Z,3.90
2022-08-20T15:44:47.294Z,4.05
2022-08-20T15:48:12.728Z,4.65
2022-08-20T15:51:44.641Z,4.72
2022-08-20T15:54:54.997Z,4.05
2022-08-20T15:58:14.660Z,4.08
2022-08-20T16:01:48.202Z,5.03
2022-08-20T16:05:26.955Z,4.40
2022-08-20T16:08:54.964Z,4.30
2022-08-20T16:12:14.284Z,4.90
2022-08-20T16:15:45.207Z,4.72
2022-08-20T16:18:51.209Z,5.12
2022-08-20T16:21:58.104Z,5.12
2022-08-20T16:24:57.353Z,5.97
2022-08-20T16:28:18.589Z,4.87
2022-08-20T16:31:28.651Z,5.50
2022-08-20T16:34:52.621Z,5.70
2022-08-20T16:38:23.832Z,5.97
2022-08-20T16:44:56.397Z,6.70
2022-08-20T16:48:02.476Z,6.37
2022-08-20T16:51:26.431Z,6.03
2022-08-20T16:54:34.088Z,6.30
2022-08-20T16:57:40.963Z,6.58
2022-08-20T17:00:48.188Z,7.08
2022-08-20T17:03:54.244Z,6.90
2022-08-20T17:07:01.418Z,6.83
2022-08-20T17:10:08.379Z,7.40
2022-08-20T17:13:30.046Z,6.25
2022-08-20T17:16:35.926Z,7.05
2022-08-20T17:19:43.552Z,7.25
2022-08-20T17:22:57.338Z,7.80
2022-08-20T17:26:15.283Z,7.30
2022-08-20T17:29:33.887Z,7.33
2022-08-20T17:32:43.416Z,7.47
2022-08-20T17:35:49.715Z,8.03
2022-08-20T17:39:14.450Z,8.48
2022-08-20T17:42:26.279Z,7.75
2022-08-20T17:45:44.333Z,8.90
2022-08-20T17:49:00.772Z,9.43
2022-08-20T17:52:08.532Z,9.00
2022-08-20T17:55:17.498Z,6.37
2022-08-20T17:58:26.731Z,7.92
2022-08-20T18:01:37.015Z,7.72
2022-08-20T18:04:55.134Z,7.85
2022-08-20T18:08:41.354Z,7.00
2022-08-20T18:11:59.699Z,6.37
2022-08-20T18:15:23.675Z,6.95
2022-08-20T18:18:35.650Z,7.62
2022-08-20T18:22:23.087Z,6.87
2022-08-20T18:25:50.848Z,7.45
2022-08-20T18:29:14.573Z,6.85
2022-08-20T18:32:17.004Z,7.08
2022-08-20T18:35:28.783Z,8.60
2022-08-20T18:41:56.341Z,6.72
2022-08-20T18:45:03.156Z,7.00
2022-08-20T18:48:08.960Z,8.40
2022-08-20T18:51:16.761Z,6.28
2022-08-20T18:54:22.614Z,8.98
2022-08-20T18:57:41.458Z,6.67
2022-08-20T19:00:53.249Z,7.67
2022-08-20T19:04:06.114Z,7.92
2022-08-20T19:07:15.734Z,8.15
2022-08-20T19:10:56.038Z,7.45
2022-08-20T19:14:24.301Z,8.03
2022-08-20T19:17:47.072Z,7.25
2022-08-20T19:20:56.766Z,6.75
2022-08-20T19:24:08.588Z,7.42
2022-08-20T19:27:18.990Z,7.03
2022-08-20T19:33:45.172Z,7.78
2022-08-20T19:36:51.765Z,8.48
2022-08-20T19:39:59.334Z,6.75
2022-08-20T19:43:07.081Z,7.08
2022-08-20T19:46:13.175Z,8.98
2022-08-20T19:49:49.839Z,7.67
2022-08-20T19:53:15.715Z,7.47
2022-08-20T19:56:34.899Z,7.83
2022-08-20T19:59:42.662Z,8.48
2022-08-20T20:02:49.092Z,8.75
2022-08-20T20:06:16.943Z,7.72
2022-08-20T20:09:36.817Z,8.55
2022-08-20T20:12:42.256Z,6.90
2022-08-20T20:15:48.679Z,7.78
2022-08-20T20:19:22.797Z,8.13
2022-08-20T20:22:29.054Z,8.50
2022-08-20T20:25:52.129Z,7.53
2022-08-20T20:29:10.937Z,7.90
2022-08-20T20:32:18.243Z,6.95
2022-08-20T20:35:24.094Z,8.35
2022-08-20T20:38:41.598Z,8.25
2022-08-20T20:41:48.047Z,7.83
2022-08-20T20:44:57.717Z,9.20
2022-08-20T20:48:06.092Z,8.13
2022-08-20T20:51:12.399Z,7.53
2022-08-20T20:54:20.621Z,8.25
2022-08-20T20:57:39.125Z,9.90
2022-08-20T21:00:46.597Z,7.70
2022-08-20T21:03:52.822Z,8.68
2022-08-20T21:06:58.799Z,7.45
2022-08-20T21:10:06.660Z,7.58
2022-08-20T21:13:12.132Z,7.67
2022-08-20T21:16:19.622Z,7.25
2022-08-20T21:19:26.297Z,7.22
2022-08-20T21:22:26.123Z,7.33
2022-08-20T21:25:32.279Z,7.92
2022-08-20T21:28:37.393Z,8.28
2022-08-20T21:31:48.212Z,7.45
2022-08-20T21:34:55.230Z,8.30
2022-08-20T21:38:01.411Z,7.08
2022-08-20T21:41:07.070Z,7.72
2022-08-20T21:44:17.515Z,9.60
2022-08-20T21:47:18.879Z,9.08
2022-08-20T21:53:30.641Z,7.92
2022-08-20T21:56:36.339Z,7.92
2022-08-20T21:59:42.830Z,7.12
2022-08-20T22:02:48.701Z,7.35
2022-08-20T22:05:54.466Z,8.33
2022-08-20T22:09:02.011Z,6.92
2022-08-20T22:12:07.542Z,8.58
2022-08-20T22:15:13.284Z,7.58
2022-08-20T22:18:18.297Z,8.90
2022-08-20T22:21:27.676Z,8.75
2022-08-20T22:24:32.282Z,8.05
2022-08-20T22:27:37.688Z,7.97
2022-08-20T22:30:43.111Z,8.58
2022-08-20T22:33:48.854Z,8.85
2022-08-20T22:36:54.413Z,7.95
2022-08-20T22:40:00.856Z,7.92
2022-08-20T22:43:06.455Z,7.10
2022-08-20T22:46:14.101Z,7.42
2022-08-20T22:49:19.804Z,7.92
2022-08-20T22:52:25.432Z,6.62
2022-08-20T22:55:32.773Z,8.20
2022-08-20T22:58:38.524Z,7.75
2022-08-20T23:01:45.155Z,7.12
2022-08-20T23:04:51.654Z,7.62
2022-08-20T23:07:58.310Z,7.95
2022-08-20T23:11:04.603Z,7.33
2022-08-20T23:14:11.154Z,7.47
2022-08-20T23:17:22.214Z,7.58
2022-08-20T23:20:30.953Z,7.78
2022-08-20T23:23:39.009Z,6.53
2022-08-20T23:26:52.514Z,7.03
2022-08-20T23:29:50.870Z,6.37
2022-08-20T23:32:57.823Z,6.55
2022-08-20T23:36:04.403Z,9.55
2022-08-20T23:39:09.291Z,7.15
2022-08-20T23:42:17.594Z,6.40
2022-08-20T23:45:24.685Z,7.78
2022-08-20T23:48:29.487Z,6.85
2022-08-20T23:51:35.459Z,7.35
2022-08-20T23:54:46.233Z,7.42
2022-08-20T23:57:52.215Z,6.75
